Latest Weather Observations for Canberra

IDN60901

Issued at 11:11 pm EST Saturday 19 August 2017 (issued every 10 minutes, with the page automatically refreshed every 10 minutes)

About weather observations | Map of Canberra area stations | Latest observations for Canberra area | Other Formats
Station Details ID: 070351 Name: CANBERRA AIRPORT Lat: -35.31 Lon: 149.20 Height: 577.05 m
Data from the previous 72 hours. | See also: Recent months at Canberra
Date/Time
EST
Temp
°C
App
Temp
°C
Dew
Point
°C
Rel
Hum
%
Delta-T
°C
Wind Press
QNH
hPa
Press
MSL
hPa
Rain since
9am
mm
Dir  Spd
km/h
Gust
km/h
Spd
kts
Gust
kts
19/11:00pm 1.8 -0.6 -3.1 70 1.7 CALM 0 0 0 0 1023.9 1024.8 0.2
19/10:30pm 2.1 -1.4 -2.6 71 1.7 SSE 6 9 3 5 1023.9 1024.8 0.2
19/10:00pm 2.2 -3.0 -2.9 69 1.8 S 15 19 8 10 1023.7 1024.6 0.2
19/09:30pm 1.1 -3.5 -3.7 70 1.7 S 11 13 6 7 1023.7 1024.6 0.2
19/09:00pm 1.4 -2.8 -3.7 69 1.8 SSE 9 15 5 8 1023.4 1024.4 0.2
19/08:30pm 2.5 -2.0 -3.4 65 2.1 SSW 11 13 6 7 1023.3 1024.3 0.2
19/08:00pm 3.7 -0.4 -3.1 61 2.4 SSE 9 13 5 7 1023.0 1023.9 0.2
19/07:30pm 5.3 -0.3 -3.2 54 3.1 S 17 22 9 12 1022.6 1023.5 0.2
19/07:00pm 5.0 0.0 -4.0 52 3.2 SSE 13 17 7 9 1022.4 1023.3 0.2
19/06:30pm 5.4 -0.9 -3.6 52 3.3 SSE 20 26 11 14 1022.2 1023.1 0.2
19/06:00pm 5.7 0.1 -3.1 53 3.2 SSE 17 26 9 14 1021.9 1022.8 0.2
19/05:30pm 6.7 1.1 -3.2 49 3.7 SSE 17 26 9 14 1021.4 1022.3 0.2
19/05:00pm 8.0 1.3 -4.1 42 4.5 SSE 22 33 12 18 1021.0 1021.9 0.2
19/04:30pm 9.2 2.8 -1.5 47 4.3 SSE 22 32 12 17 1020.5 1021.4 0.2
19/04:00pm 10.1 3.9 -4.6 35 5.5 S 19 26 10 14 1020.2 1021.0 0.2
19/03:30pm 10.3 3.1 -5.2 33 5.7 S 24 35 13 19 1019.9 1020.7 0.2
19/03:00pm 10.4 2.5 -4.8 34 5.7 S 28 35 15 19 1019.7 1020.6 0.2
19/02:30pm 10.4 3.3 -4.0 36 5.5 S 24 32 13 17 1019.6 1020.5 0.2
19/02:00pm 10.3 2.8 -4.1 36 5.5 S 26 37 14 20 1019.6 1020.5 0.2
19/01:30pm 9.7 2.2 -5.0 35 5.4 S 26 41 14 22 1019.6 1020.5 0.2
19/01:00pm 9.9 3.4 -2.4 42 4.8 SSW 22 35 12 19 1019.4 1020.3 0.2
19/12:30pm 9.5 1.1 -2.8 42 4.8 S 32 41 17 22 1019.5 1020.4 0.2
19/12:00pm 9.4 1.8 -2.5 43 4.6 SSW 28 37 15 20 1019.4 1020.3 0.0
19/11:30am 9.0 1.0 -2.6 44 4.5 SSW 30 37 16 20 1019.7 1020.6 0.0
19/11:00am 8.5 1.2 -2.7 45 4.3 S 26 37 14 20 1019.7 1020.6 0.0
19/10:30am 8.6 1.0 -2.3 46 4.2 SSW 28 37 15 20 1019.6 1020.5 0.0
19/10:00am 7.3 -0.8 -3.0 48 3.9 SSE 30 41 16 22 1019.5 1020.4 0.0
19/09:30am 7.6 0.8 -1.9 51 3.7 S 24 33 13 18 1019.4 1020.3 0.0
19/09:06am 6.7 1.5 -2.4 52 3.5 S 15 37 8 20 1019.2 1020.1 0.0
19/09:00am 6.3 2.4 -1.6 57 3.0 SSW 9 17 5 9 1019.1 1020.0 0.0
19/08:30am 4.7 1.2 -1.7 63 2.4 N 7 9 4 5 1018.7 1019.5 0.0
19/08:00am 2.2 0.0 -1.8 75 1.5 CALM 0 4 0 2 1018.4 1019.2 0.0
19/07:30am -0.5 -4.0 -2.7 85 0.7 S 6 9 3 5 1018.1 1018.9 0.0
19/07:00am -1.5 -5.1 -3.4 87 0.6 NE 6 9 3 5 1017.3 1018.1 0.0
19/06:30am -2.0 -6.2 -4.3 84 0.7 NE 9 9 5 5 1016.9 1017.7 0.0
19/06:00am -1.2 -6.2 -4.0 81 0.9 ENE 13 15 7 8 1016.5 1017.3 0.0
19/05:30am -1.9 -5.6 -4.6 82 0.8 SSW 6 9 3 5 1015.9 1016.8 0.0
19/05:00am -1.3 -4.6 -4.5 79 1.0 S 4 7 2 4 1015.5 1016.3 0.0
19/04:30am 1.5 -2.1 -3.9 67 1.9 WNW 6 11 3 6 1015.2 1016.0 0.0
19/04:00am 3.4 -1.9 -3.2 62 2.4 W 15 19 8 10 1015.0 1015.8 0.0
19/03:30am 3.2 -0.9 -2.7 65 2.1 W 9 11 5 6 1014.9 1015.7 0.0
19/03:00am 3.7 -1.1 -2.5 64 2.3 W 13 20 7 11 1014.7 1015.5 0.0
19/02:30am 3.2 -0.7 -1.5 71 1.8 W 9 15 5 8 1014.6 1015.4 0.0
19/02:00am 3.8 -0.7 -0.6 73 1.7 WSW 13 17 7 9 1014.3 1015.0 0.0
19/01:30am 4.3 -0.7 -0.9 69 2.0 W 15 28 8 15 1014.4 1015.1 0.0
19/01:00am 4.4 -0.2 -0.8 69 2.0 WNW 13 22 7 12 1014.0 1014.8 0.0
19/12:30am 4.4 0.3 -0.4 71 1.9 W 11 19 6 10 1014.0 1014.8 0.0
19/12:00am 4.8 -0.4 0.2 72 1.8 W 17 22 9 12 1013.8 1014.6 0.0
 
Date/Time
EST
Temp
°C
App
Temp
°C
Dew
Point
°C
Rel
Hum
%
Delta-T
°C
Wind Press
QNH
hPa
Press
MSL
hPa
Rain since
9am
mm
Dir  Spd
km/h
Gust
km/h
Spd
kts
Gust
kts
18/11:30pm 5.1 -1.0 0.1 70 2.0 WNW 22 32 12 17 1013.8 1014.6 0.0
18/11:00pm 4.9 -0.9 -0.1 70 2.0 WNW 20 28 11 15 1013.9 1014.7 0.0
18/10:30pm 4.9 -1.3 -0.3 69 2.0 WNW 22 30 12 16 1013.7 1014.5 0.0
18/10:00pm 5.1 -1.1 -0.3 68 2.1 WNW 22 28 12 15 1013.8 1014.6 0.0
18/09:30pm 4.2 -1.4 0.0 74 1.6 WNW 19 24 10 13 1013.7 1014.5 0.0
18/09:00pm 4.2 -1.0 0.4 76 1.5 WNW 17 28 9 15 1013.4 1014.2 0.0
18/08:30pm 4.8 1.5 0.4 73 1.8 WNW 7 9 4 5 1013.4 1014.2 0.0
18/08:00pm 4.1 0.1 0.3 76 1.5 N 11 15 6 8 1012.9 1013.6 0.0
18/07:30pm 4.0 0.0 0.5 78 1.4 N 11 20 6 11 1012.7 1013.4 0.0
18/07:00pm 3.8 -1.2 1.2 83 1.0 NNE 17 19 9 10 1012.3 1013.1 0.0
18/06:30pm 4.7 -0.9 1.4 79 1.3 WNW 20 30 11 16 1012.1 1012.9 0.0
18/06:00pm 5.9 -2.1 0.7 69 2.1 W 32 41 17 22 1011.5 1012.2 0.0
18/05:30pm 6.2 0.2 0.9 69 2.2 WNW 22 28 12 15 1011.2 1011.9 0.0
18/05:00pm 6.4 0.0 1.1 69 2.2 W 24 33 13 18 1010.7 1011.4 0.0
18/04:30pm 7.6 -0.9 0.6 61 2.9 W 35 50 19 27 1009.8 1010.5 0.0
18/04:06pm 7.8 -1.1 1.0 62 2.8 WNW 37 56 20 30 1009.5 1010.2 0.0
18/04:00pm 7.7 -1.5 1.1 63 2.8 WNW 39 54 21 29 1009.2 1009.9 0.0
18/03:30pm 7.7 -2.3 1.3 64 2.7 WNW 43 61 23 33 1009.0 1009.7 0.0
18/03:01pm 8.2 -0.6 1.6 63 2.8 WNW 37 57 20 31 1008.6 1009.4 0.0
18/03:00pm 7.9 -0.9 1.5 64 2.7 WNW 37 54 20 29 1008.6 1009.4 0.0
18/02:30pm 8.3 -0.1 1.5 62 2.9 WNW 35 54 19 29 1008.4 1009.1 0.0
18/02:11pm 8.3 -1.2 1.9 64 2.7 WNW 41 59 22 32 1008.3 1009.0 0.0
18/02:00pm 8.9 -1.1 1.3 59 3.2 WNW 43 57 23 31 1008.1 1008.8 0.0
18/01:30pm 9.0 0.2 1.4 59 3.2 WNW 37 57 20 31 1007.9 1008.6 0.0
18/01:00pm 8.1 -1.5 1.0 61 3.0 W 41 63 22 34 1008.1 1008.8 0.0
18/12:31pm 8.8 -0.8 1.2 59 3.2 W 41 63 22 34 1008.0 1008.7 0.0
18/12:30pm 8.8 -0.8 1.0 58 3.3 W 41 57 22 31 1007.9 1008.6 0.0
18/12:02pm 9.0 -0.5 1.7 60 3.1 W 41 59 22 32 1007.9 1008.6 0.0
18/12:00pm 8.9 -1.0 1.8 61 3.1 W 43 59 23 32 1007.9 1008.6 0.0
18/11:30am 8.3 -1.8 1.5 62 2.9 WNW 44 63 24 34 1008.1 1008.8 0.0
18/11:00am 8.0 -1.1 1.6 64 2.7 WNW 39 59 21 32 1008.2 1008.9 0.0
18/10:33am 7.4 -2.2 1.3 65 2.6 WNW 41 59 22 32 1008.2 1008.9 0.0
18/10:30am 7.3 -2.7 1.2 65 2.5 WNW 43 54 23 29 1008.3 1009.0 0.0
18/10:00am 7.0 -2.1 1.9 70 2.2 WNW 39 57 21 31 1008.2 1008.9 0.0
18/09:30am 6.9 -2.0 3.2 77 1.6 NW 39 57 21 31 1008.1 1008.8 0.0
18/09:21am 6.8 -1.8 2.7 75 1.8 WNW 37 57 20 31 1008.1 1008.8 0.0
18/09:00am 6.6 -2.2 1.5 70 2.1 WNW 37 50 20 27 1008.1 1008.8 3.6
18/08:50am 6.3 -2.2 1.2 70 2.1 WNW 35 54 19 29 1008.1 1008.8 3.6
18/08:30am 6.0 -2.0 1.9 75 1.7 WNW 33 46 18 25 1007.9 1008.6 3.6
18/08:00am 5.5 -2.3 1.6 76 1.6 WNW 32 57 17 31 1008.0 1008.7 3.6
18/07:51am 5.1 -2.9 1.6 78 1.4 WNW 33 57 18 31 1007.9 1008.6 3.6
18/07:30am 4.4 -3.4 1.6 82 1.1 WNW 32 41 17 22 1007.7 1008.4 3.6
18/07:04am 4.3 -3.6 1.2 80 1.3 WNW 32 50 17 27 1007.6 1008.3 3.6
18/07:00am 4.0 -3.8 1.4 83 1.1 WNW 32 44 17 24 1007.6 1008.3 3.6
18/06:32am 4.6 -3.2 1.6 81 1.2 WNW 32 50 17 27 1007.6 1008.3 3.6
18/06:30am 4.6 -3.2 1.6 81 1.2 W 32 46 17 25 1007.6 1008.3 3.6
18/06:00am 4.2 -1.7 1.4 82 1.1 WNW 22 32 12 17 1006.8 1007.5 3.6
18/05:30am 4.0 -0.9 1.9 86 0.9 W 17 26 9 14 1007.0 1007.6 3.6
18/05:00am 4.7 -2.7 1.9 82 1.2 WNW 30 43 16 23 1006.7 1007.4 3.6
18/04:33am 4.5 -3.5 1.5 81 1.2 WNW 33 52 18 28 1006.2 1006.9 3.6
18/04:30am 4.7 -3.7 1.4 79 1.3 WNW 35 52 19 28 1006.2 1006.9 3.6
18/04:22am 4.7 -2.3 1.7 81 1.2 WNW 28 46 15 25 1006.4 1007.1 3.6
18/04:21am 4.8 -2.2 1.7 80 1.3 WNW 28 46 15 25 1006.5 1007.2 3.6
18/04:00am 5.0 -2.7 2.5 84 1.1 W 32 44 17 24 1006.6 1007.3 3.4
18/03:59am 4.9 -2.7 2.6 85 1.0 WNW 32 46 17 25 1006.7 1007.4 3.2
18/03:34am 5.6 -2.7 1.9 77 1.5 WNW 35 56 19 30 1006.1 1006.8 3.0
18/03:30am 5.7 -2.1 1.8 76 1.6 WNW 32 48 17 26 1006.1 1006.8 3.0
18/03:00am 5.6 -1.3 2.3 79 1.4 WNW 28 37 15 20 1006.2 1006.9 3.0
18/02:30am 6.4 -0.3 1.7 72 2.0 WNW 26 37 14 20 1006.1 1006.8 2.8
18/02:07am 6.6 -0.4 1.9 72 2.0 WNW 28 48 15 26 1006.2 1006.9 2.8
18/02:00am 6.7 -0.3 2.0 72 2.0 WNW 28 41 15 22 1006.1 1006.8 2.8
18/01:30am 6.4 -0.9 2.7 77 1.6 WNW 30 41 16 22 1006.5 1007.2 2.8
18/01:15am 6.8 -0.9 2.1 72 2.0 WNW 32 52 17 28 1006.7 1007.4 2.8
18/01:00am 6.7 -1.0 2.2 73 1.9 WNW 32 44 17 24 1006.6 1007.3 2.8
18/12:30am 5.9 -1.4 2.7 80 1.4 NW 30 43 16 23 1006.8 1007.5 2.8
18/12:00am 6.0 -0.4 3.3 83 1.2 WNW 26 39 14 21 1007.3 1008.0 2.8
 
Date/Time
EST
Temp
°C
App
Temp
°C
Dew
Point
°C
Rel
Hum
%
Delta-T
°C
Wind Press
QNH
hPa
Press
MSL
hPa
Rain since
9am
mm
Dir  Spd
km/h
Gust
km/h
Spd
kts
Gust
kts
17/11:30pm 6.6 1.1 4.1 84 1.1 WNW 22 32 12 17 1007.4 1008.1 2.8
17/11:00pm 7.0 1.3 4.7 85 1.0 WNW 24 35 13 19 1007.5 1008.2 2.6
17/10:30pm 7.1 2.1 4.6 84 1.1 NW 20 30 11 16 1006.8 1007.5 2.0
17/10:00pm 7.4 2.0 4.4 81 1.4 WNW 22 32 12 17 1007.1 1007.7 2.0
17/09:32pm 7.6 0.7 4.6 81 1.4 WNW 30 48 16 26 1007.4 1008.1 2.0
17/09:30pm 7.5 0.2 4.6 82 1.3 WNW 32 48 17 26 1007.4 1008.1 2.0
17/09:00pm 7.5 0.7 5.0 84 1.1 WNW 30 41 16 22 1007.0 1007.6 1.8
17/08:50pm 7.6 0.4 5.1 84 1.1 WNW 32 50 17 27 1007.0 1007.6 1.8
17/08:30pm 7.7 0.6 5.7 87 0.9 NW 32 44 17 24 1007.0 1007.6 1.4
17/08:08pm 8.1 1.7 5.0 81 1.4 NW 28 50 15 27 1006.6 1007.3 1.0
17/08:00pm 7.8 2.2 5.4 85 1.1 NW 24 32 13 17 1006.7 1007.4 1.0
17/07:36pm 8.0 1.5 4.9 81 1.4 WNW 28 46 15 25 1006.2 1006.9 0.8
17/07:30pm 7.7 0.4 5.3 85 1.1 WNW 33 46 18 25 1006.6 1007.3 0.8
17/07:21pm 8.1 -1.4 5.0 81 1.4 WNW 44 76 24 41 1007.0 1007.6 0.8
17/07:15pm 8.2 -1.1 5.1 81 1.4 WNW 43 76 23 41 1007.1 1007.7 0.8
17/07:08pm 8.4 2.0 5.3 81 1.4 WNW 28 52 15 28 1006.8 1007.5 0.6
17/07:00pm 8.6 2.2 5.0 78 1.7 NW 28 41 15 22 1006.6 1007.3 0.4
17/06:30pm 9.6 0.9 4.0 68 2.5 WNW 39 76 21 41 1005.8 1006.5 0.2
17/06:25pm 8.9 -1.2 3.5 69 2.4 WNW 46 76 25 41 1005.6 1006.2 0.2
17/06:22pm 9.1 -0.6 3.7 69 2.4 NW 44 76 24 41 1005.8 1006.5 0.2
17/06:19pm 10.4 1.9 3.2 61 3.2 WNW 37 72 20 39 1005.6 1006.2 0.0
17/06:16pm 10.8 3.0 2.6 57 3.7 WNW 33 52 18 28 1005.6 1006.2 0.0
17/06:00pm 10.6 1.6 2.2 56 3.7 NW 39 54 21 29 1004.8 1005.5 0.0
17/05:50pm 9.9 1.8 3.0 62 3.1 WNW 35 50 19 27 1004.9 1005.6 0.0
17/05:30pm 10.9 3.2 3.2 59 3.5 WNW 33 52 18 28 1005.1 1005.7 0.0
17/05:00pm 11.7 1.8 1.6 50 4.5 NW 43 61 23 33 1004.1 1004.7 0.0
17/04:30pm 12.3 2.2 1.3 47 4.8 NW 44 65 24 35 1004.3 1005.0 0.0
17/04:00pm 12.9 2.9 1.3 45 5.1 WNW 43 74 23 40 1004.4 1005.1 0.0
17/03:30pm 13.6 4.2 2.2 46 5.2 NW 41 61 22 33 1004.6 1005.3 0.0
17/03:00pm 14.2 3.7 1.5 42 5.7 WNW 46 72 25 39 1004.6 1005.3 0.0
17/02:30pm 14.1 4.5 1.1 41 5.8 NW 41 61 22 33 1004.5 1005.2 0.0
17/02:00pm 13.7 3.1 1.0 42 5.6 WNW 46 65 25 35 1004.7 1005.4 0.0
17/01:32pm 13.3 3.3 1.0 43 5.4 NW 43 63 23 34 1005.1 1005.7 0.0
17/01:30pm 13.3 3.7 1.0 43 5.4 NW 41 57 22 31 1004.9 1005.6 0.0
17/01:00pm 14.9 6.6 2.4 43 5.8 WNW 35 54 19 29 1005.5 1006.1 0.0
17/12:30pm 13.8 4.4 2.1 45 5.3 WNW 41 63 22 34 1006.0 1006.7 0.0
17/12:08pm 13.8 3.7 1.8 44 5.4 NW 44 63 24 34 1006.3 1007.0 0.0
17/12:00pm 13.2 3.8 2.4 48 4.9 NW 41 57 22 31 1006.4 1007.1 0.0
17/11:30am 12.8 4.3 2.9 51 4.5 NW 37 61 20 33 1007.1 1007.7 0.0
17/11:00am 12.3 4.2 3.5 55 4.1 WNW 35 56 19 30 1007.7 1008.4 0.0
17/10:46am 12.2 3.4 3.7 56 3.9 NW 39 57 21 31 1007.8 1008.5 0.0
17/10:30am 12.2 3.1 3.9 57 3.9 NW 41 54 22 29 1008.0 1008.7 0.0
17/10:00am 10.5 3.1 3.8 63 3.1 NW 32 52 17 28 1008.4 1009.1 0.0
17/09:30am 10.6 3.2 3.9 63 3.1 NW 32 41 17 22 1008.4 1009.1 0.0
17/09:00am 10.1 2.4 3.6 64 3.0 NW 33 43 18 23 1008.4 1009.1 0.0
17/08:30am 9.4 3.6 4.2 70 2.4 NW 24 33 13 18 1008.8 1009.5 0.0
17/08:00am 8.3 2.7 3.6 72 2.1 NW 22 28 12 15 1008.8 1009.5 0.0
17/07:30am 7.3 3.4 3.2 75 1.8 NNW 13 17 7 9 1008.6 1009.4 0.0
17/07:00am 6.1 2.1 2.6 78 1.5 NNW 13 20 7 11 1008.3 1009.0 0.0
17/06:30am 6.1 0.4 2.6 78 1.5 NNW 22 28 12 15 1008.2 1008.9 0.0
17/06:00am 6.1 0.4 2.6 78 1.5 N 22 28 12 15 1007.8 1008.5 0.0
17/05:30am 6.2 1.0 2.7 78 1.5 NNW 19 26 10 14 1007.9 1008.6 0.0
17/05:00am 6.4 1.3 2.9 78 1.5 NNW 19 24 10 13 1008.0 1008.7 0.0
17/04:30am 6.3 2.3 2.9 79 1.5 NNW 13 17 7 9 1007.9 1008.6 0.0
17/04:00am 5.7 2.0 2.5 80 1.4 NW 11 19 6 10 1007.9 1008.6 0.0
17/03:30am 7.0 1.7 2.9 75 1.8 NNW 20 26 11 14 1008.0 1008.7 0.0
17/03:00am 7.1 1.9 3.3 77 1.7 NW 20 30 11 16 1008.2 1008.9 0.0
17/02:30am 7.2 1.6 3.3 76 1.7 NNW 22 28 12 15 1008.5 1009.2 0.0
17/02:00am 7.3 2.2 3.2 75 1.8 NNW 19 26 10 14 1008.5 1009.2 0.0
17/01:30am 7.3 2.6 3.2 75 1.8 NNW 17 24 9 13 1009.1 1009.8 0.0
17/01:00am 8.0 3.4 3.8 75 1.9 NW 17 26 9 14 1009.2 1009.9 0.0
17/12:30am 7.9 2.7 3.8 75 1.8 NNW 20 28 11 15 1009.2 1009.9 0.0
17/12:00am 7.7 3.1 3.7 76 1.8 NW 17 24 9 13 1009.3 1010.0 0.0
 
Date/Time
EST
Temp
°C
App
Temp
°C
Dew
Point
°C
Rel
Hum
%
Delta-T
°C
Wind Press
QNH
hPa
Press
MSL
hPa
Rain since
9am
mm
Dir  Spd
km/h
Gust
km/h
Spd
kts
Gust
kts
16/11:30pm 7.4 2.8 3.8 78 1.6 NW 17 24 9 13 1009.3 1010.0 0.0

Latest Capital City Observations: Canberra | Sydney | Melbourne | Brisbane | Adelaide | Perth | Hobart | Darwin

Other Formats:

Comma delimited format used in spreadsheet applications
http://www.bom.gov.au/fwo/IDN60903/IDN60903.94926.axf

JavaScript Object Notation format (JSON) in row-major order
http://www.bom.gov.au/fwo/IDN60903/IDN60903.94926.json